createdAt,value
2022-09-17T00:00:54.034Z,10.63
2022-09-17T00:01:54.079Z,10.59
2022-09-17T00:02:54.401Z,10.60
2022-09-17T00:03:54.008Z,10.56
2022-09-17T00:04:53.984Z,10.55
2022-09-17T00:05:53.975Z,10.53
2022-09-17T00:06:53.965Z,10.51
2022-09-17T00:07:54.251Z,10.48
2022-09-17T00:08:53.968Z,10.48
2022-09-17T00:09:53.919Z,10.44
2022-09-17T00:10:53.912Z,10.42
2022-09-17T00:11:53.899Z,10.44
2022-09-17T00:12:54.308Z,10.41
2022-09-17T00:13:53.889Z,10.41
2022-09-17T00:14:53.867Z,10.41
2022-09-17T00:15:53.907Z,10.40
2022-09-17T00:16:54.236Z,10.40
2022-09-17T00:17:54.190Z,10.40
2022-09-17T00:18:53.815Z,10.38
2022-09-17T00:19:53.813Z,10.40
2022-09-17T00:20:53.779Z,10.40
2022-09-17T00:21:53.761Z,10.38
2022-09-17T00:22:54.183Z,10.38
2022-09-17T00:23:53.739Z,10.38
2022-09-17T00:24:53.729Z,10.36
2022-09-17T00:25:53.725Z,10.32
2022-09-17T00:26:53.718Z,10.32
2022-09-17T00:27:53.991Z,10.32
2022-09-17T00:28:53.692Z,10.30
2022-09-17T00:29:53.661Z,10.30
2022-09-17T00:30:53.740Z,10.30
2022-09-17T00:31:53.638Z,10.29
2022-09-17T00:32:53.988Z,10.27
2022-09-17T00:33:53.607Z,10.26
2022-09-17T00:34:53.606Z,10.25
2022-09-17T00:35:53.599Z,10.25
2022-09-17T00:36:53.576Z,10.23
2022-09-17T00:37:53.897Z,10.22
2022-09-17T00:38:53.545Z,10.20
2022-09-17T00:39:53.579Z,10.20
2022-09-17T00:40:53.527Z,10.20
2022-09-17T00:41:53.511Z,10.17
2022-09-17T00:42:53.913Z,10.18
2022-09-17T00:43:53.487Z,10.20
2022-09-17T00:44:53.474Z,10.22
2022-09-17T00:45:53.455Z,10.18
2022-09-17T00:46:53.578Z,10.20
2022-09-17T00:47:53.432Z,10.18
2022-09-17T00:48:53.841Z,10.18
2022-09-17T00:49:53.408Z,10.18
2022-09-17T00:50:53.400Z,10.20
2022-09-17T00:51:57.036Z,10.20
2022-09-17T00:52:54.373Z,10.18
2022-09-17T00:53:53.732Z,10.18
2022-09-17T00:54:53.345Z,10.20
2022-09-17T00:55:53.330Z,10.18
2022-09-17T00:56:53.322Z,10.20
2022-09-17T00:57:53.301Z,10.22
2022-09-17T00:58:53.630Z,10.23
2022-09-17T00:59:53.281Z,10.23
2022-09-17T01:00:53.330Z,10.22
2022-09-17T01:01:53.281Z,10.25
2022-09-17T01:02:53.250Z,10.23
2022-09-17T01:03:53.671Z,10.22
2022-09-17T01:04:53.219Z,10.22
2022-09-17T01:05:53.199Z,10.23
2022-09-17T01:06:53.195Z,10.25
2022-09-17T01:07:53.184Z,10.25
2022-09-17T01:08:53.599Z,10.25
2022-09-17T01:09:53.161Z,10.26
2022-09-17T01:10:53.139Z,10.26
2022-09-17T01:11:53.126Z,10.29
2022-09-17T01:12:53.116Z,10.29
2022-09-17T01:13:53.525Z,10.27
2022-09-17T01:14:53.093Z,10.29
2022-09-17T01:15:53.145Z,10.29
2022-09-17T01:16:53.067Z,10.30
2022-09-17T01:17:53.046Z,10.32
2022-09-17T01:18:53.464Z,10.30
2022-09-17T01:19:53.025Z,10.29
2022-09-17T01:20:53.015Z,10.29
2022-09-17T01:21:52.994Z,10.29
2022-09-17T01:22:52.985Z,10.29
2022-09-17T01:23:53.406Z,10.30
2022-09-17T01:24:52.963Z,10.32
2022-09-17T01:25:52.943Z,10.29
2022-09-17T01:26:52.940Z,10.33
2022-09-17T01:27:52.921Z,10.33
2022-09-17T01:28:53.323Z,10.33
2022-09-17T01:29:52.896Z,10.32
2022-09-17T01:30:52.883Z,10.33
2022-09-17T01:31:52.919Z,10.33
2022-09-17T01:32:52.862Z,10.34
2022-09-17T01:33:53.174Z,10.34
2022-09-17T01:34:52.834Z,10.34
2022-09-17T01:35:52.828Z,10.34
2022-09-17T01:36:52.814Z,10.30
2022-09-17T01:37:52.791Z,10.32
2022-09-17T01:38:53.200Z,10.32
2022-09-17T01:39:52.830Z,10.32
2022-09-17T01:40:52.764Z,10.32
2022-09-17T01:41:52.743Z,10.32
2022-09-17T01:42:52.744Z,10.32
2022-09-17T01:43:53.113Z,10.30
2022-09-17T01:44:52.707Z,10.30
2022-09-17T01:45:52.690Z,10.26
2022-09-17T01:46:52.739Z,10.26
2022-09-17T01:47:52.660Z,10.23
2022-09-17T01:48:53.075Z,10.22
2022-09-17T01:49:52.642Z,10.17
2022-09-17T01:50:52.638Z,10.11
2022-09-17T01:51:52.608Z,10.08
2022-09-17T01:52:52.604Z,10.04
2022-09-17T01:53:53.147Z,9.99
2022-09-17T01:54:52.576Z,9.97
2022-09-17T01:55:52.558Z,9.96
2022-09-17T01:56:52.555Z,9.90
2022-09-17T01:57:52.535Z,9.83
2022-09-17T01:58:52.870Z,9.83
2022-09-17T01:59:52.515Z,9.78
2022-09-17T02:00:52.550Z,9.75
2022-09-17T02:01:52.516Z,9.71
2022-09-17T02:02:52.502Z,9.69
2022-09-17T02:03:52.883Z,9.68
2022-09-17T02:04:52.445Z,9.69
2022-09-17T02:05:52.463Z,9.68
2022-09-17T02:06:52.425Z,9.66
2022-09-17T02:07:52.411Z,9.66
2022-09-17T02:08:52.771Z,9.65
2022-09-17T02:09:52.383Z,9.68
2022-09-17T02:10:52.374Z,9.68
2022-09-17T02:11:52.361Z,9.69
2022-09-17T02:12:52.343Z,9.72
2022-09-17T02:13:52.633Z,9.75
2022-09-17T02:14:52.321Z,9.79
2022-09-17T02:15:52.366Z,9.79
2022-09-17T02:16:52.303Z,9.84
2022-09-17T02:17:52.281Z,9.87
2022-09-17T02:18:52.692Z,9.90
2022-09-17T02:19:52.254Z,9.93
2022-09-17T02:20:52.241Z,9.96
2022-09-17T02:21:52.231Z,9.97
2022-09-17T02:22:52.227Z,10.01
2022-09-17T02:23:52.512Z,10.02
2022-09-17T02:24:52.198Z,10.04
2022-09-17T02:25:52.189Z,10.08
2022-09-17T02:26:52.169Z,10.08
2022-09-17T02:27:52.163Z,10.11
2022-09-17T02:28:52.559Z,10.11
2022-09-17T02:29:52.128Z,10.14
2022-09-17T02:30:52.120Z,10.14
2022-09-17T02:31:52.203Z,10.14
2022-09-17T02:32:52.096Z,10.12
2022-09-17T02:33:52.222Z,10.14
2022-09-17T02:34:52.495Z,10.14
2022-09-17T02:35:52.060Z,10.15
2022-09-17T02:36:52.043Z,10.15
2022-09-17T02:37:52.047Z,10.14
2022-09-17T02:38:52.037Z,10.12
2022-09-17T02:39:52.385Z,10.08
2022-09-17T02:40:51.988Z,10.02
2022-09-17T02:41:51.980Z,9.97
2022-09-17T02:42:51.966Z,9.94
2022-09-17T02:43:52.215Z,9.87
2022-09-17T02:44:59.350Z,9.83
2022-09-17T02:45:58.927Z,9.81
2022-09-17T02:46:58.949Z,9.78
2022-09-17T02:47:58.900Z,9.75
2022-09-17T02:48:59.259Z,9.72
2022-09-17T02:49:58.876Z,9.71
2022-09-17T02:50:58.863Z,9.68
2022-09-17T02:51:58.836Z,9.68
2022-09-17T02:52:58.836Z,9.69
2022-09-17T02:53:51.827Z,9.68
2022-09-17T02:54:52.146Z,9.66
2022-09-17T02:55:51.798Z,9.66
2022-09-17T02:56:51.788Z,9.61
2022-09-17T02:57:51.766Z,9.60
2022-09-17T02:58:51.763Z,9.61
2022-09-17T02:59:52.162Z,9.64
2022-09-17T03:00:51.764Z,9.65
2022-09-17T03:01:51.796Z,9.65
2022-09-17T03:02:51.703Z,9.61
2022-09-17T03:03:51.693Z,9.61
2022-09-17T03:04:52.062Z,9.65
2022-09-17T03:05:51.683Z,9.68
2022-09-17T03:06:51.655Z,9.71
2022-09-17T03:07:51.643Z,9.74
2022-09-17T03:08:51.629Z,9.76
2022-09-17T03:09:52.042Z,9.79
2022-09-17T03:10:51.607Z,9.84
2022-09-17T03:11:51.591Z,9.86
2022-09-17T03:12:51.574Z,9.87
2022-09-17T03:13:51.570Z,9.89
2022-09-17T03:14:51.970Z,9.90
2022-09-17T03:15:51.630Z,9.91
2022-09-17T03:16:51.526Z,9.93
2022-09-17T03:17:53.516Z,9.93
2022-09-17T03:18:51.504Z,9.94
2022-09-17T03:19:51.870Z,9.93
2022-09-17T03:20:51.469Z,9.93
2022-09-17T03:21:51.469Z,9.93
2022-09-17T03:22:51.450Z,9.91
2022-09-17T03:23:51.440Z,9.89
2022-09-17T03:24:51.845Z,9.87
2022-09-17T03:25:51.429Z,9.84
2022-09-17T03:26:51.401Z,9.81
2022-09-17T03:27:51.388Z,9.78
2022-09-17T03:28:51.367Z,9.72
2022-09-17T03:29:51.785Z,9.68
2022-09-17T03:30:51.348Z,9.61
2022-09-17T03:31:51.382Z,9.56
2022-09-17T03:32:51.329Z,9.54
2022-09-17T03:33:51.315Z,9.51
2022-09-17T03:34:51.782Z,9.51
2022-09-17T03:35:51.293Z,9.50
2022-09-17T03:36:51.269Z,9.50
2022-09-17T03:37:51.256Z,9.50
2022-09-17T03:38:51.244Z,9.50
2022-09-17T03:39:51.641Z,9.50
2022-09-17T03:40:51.216Z,9.48
2022-09-17T03:41:51.211Z,9.50
2022-09-17T03:42:51.194Z,9.47
2022-09-17T03:43:51.178Z,9.47
2022-09-17T03:44:51.485Z,9.47
2022-09-17T03:45:51.164Z,9.46
2022-09-17T03:46:51.255Z,9.40
2022-09-17T03:47:51.132Z,9.39
2022-09-17T03:48:51.117Z,9.36
2022-09-17T03:49:51.532Z,9.35
2022-09-17T03:50:51.091Z,9.29
2022-09-17T03:51:51.081Z,9.28
2022-09-17T03:52:51.064Z,9.26
2022-09-17T03:53:51.052Z,9.28
2022-09-17T03:54:51.460Z,9.28
2022-09-17T03:55:51.031Z,9.24
2022-09-17T03:56:51.011Z,9.24
2022-09-17T03:57:51.000Z,9.21
2022-09-17T03:58:50.996Z,9.23
2022-09-17T03:59:51.341Z,9.21
2022-09-17T04:00:50.964Z,9.21
2022-09-17T04:01:51.142Z,9.24
2022-09-17T04:02:50.997Z,9.26
2022-09-17T04:03:50.943Z,9.31
2022-09-17T04:04:51.340Z,9.32
2022-09-17T04:05:50.909Z,9.32
2022-09-17T04:06:50.883Z,9.31
2022-09-17T04:07:50.867Z,9.28
2022-09-17T04:08:50.861Z,9.28
2022-09-17T04:09:51.217Z,9.29
2022-09-17T04:10:50.838Z,9.29
2022-09-17T04:11:50.825Z,9.33
2022-09-17T04:12:50.808Z,9.33
2022-09-17T04:13:50.800Z,9.35
2022-09-17T04:14:51.230Z,9.36
2022-09-17T04:15:50.788Z,9.38
2022-09-17T04:16:50.759Z,9.38
2022-09-17T04:17:50.744Z,9.40
2022-09-17T04:18:50.734Z,9.40
2022-09-17T04:19:51.077Z,9.39
2022-09-17T04:20:50.704Z,9.38
2022-09-17T04:21:50.692Z,9.35
2022-09-17T04:22:50.691Z,9.29
2022-09-17T04:23:50.667Z,9.31
2022-09-17T04:24:51.092Z,9.24
2022-09-17T04:25:50.644Z,9.23
2022-09-17T04:26:50.625Z,9.20
2022-09-17T04:27:50.622Z,9.18
2022-09-17T04:28:50.602Z,9.18
2022-09-17T04:29:50.989Z,9.17
2022-09-17T04:30:50.729Z,9.20
2022-09-17T04:31:50.574Z,9.23
2022-09-17T04:32:50.549Z,9.21
2022-09-17T04:33:50.543Z,9.24
2022-09-17T04:34:50.520Z,9.29
2022-09-17T04:35:50.909Z,9.33
2022-09-17T04:36:50.500Z,9.39
2022-09-17T04:37:50.490Z,9.43
2022-09-17T04:38:50.476Z,9.47
2022-09-17T04:39:50.517Z,9.51
2022-09-17T04:40:50.771Z,9.53
2022-09-17T04:41:50.438Z,9.56
2022-09-17T04:42:50.432Z,9.57
2022-09-17T04:43:50.417Z,9.61
2022-09-17T04:44:50.399Z,9.65
2022-09-17T04:45:50.769Z,9.66
2022-09-17T04:46:50.424Z,9.68
2022-09-17T04:47:50.370Z,9.69
2022-09-17T04:48:50.349Z,9.69
2022-09-17T04:49:50.335Z,9.69
2022-09-17T04:50:50.787Z,9.72
2022-09-17T04:51:50.318Z,9.72
2022-09-17T04:52:50.293Z,9.74
2022-09-17T04:53:50.285Z,9.76
2022-09-17T04:54:50.265Z,9.79
2022-09-17T04:55:50.705Z,9.79
2022-09-17T04:56:50.245Z,9.81
2022-09-17T04:57:50.366Z,9.81
2022-09-17T04:58:50.224Z,9.83
2022-09-17T04:59:50.216Z,9.84
2022-09-17T05:00:50.583Z,9.86
2022-09-17T05:01:50.243Z,9.86
2022-09-17T05:02:50.171Z,9.89
2022-09-17T05:03:50.158Z,9.90
2022-09-17T05:04:50.147Z,9.90
2022-09-17T05:05:50.565Z,9.94
2022-09-17T05:06:50.114Z,9.96
2022-09-17T05:07:50.112Z,9.97
2022-09-17T05:08:50.092Z,10.01
2022-09-17T05:09:50.083Z,9.99
2022-09-17T05:10:50.372Z,10.01
2022-09-17T05:11:50.055Z,10.02
2022-09-17T05:12:50.040Z,10.04
2022-09-17T05:13:50.039Z,10.05
2022-09-17T05:14:50.020Z,10.05
2022-09-17T05:15:50.510Z,10.07
2022-09-17T05:16:49.984Z,10.05
2022-09-17T05:17:49.980Z,10.07
2022-09-17T05:18:49.972Z,10.04
2022-09-17T05:19:49.957Z,10.04
2022-09-17T05:20:50.295Z,10.05
2022-09-17T05:21:49.927Z,10.07
2022-09-17T05:22:49.924Z,10.07
2022-09-17T05:23:49.901Z,10.08
2022-09-17T05:24:49.884Z,10.09
2022-09-17T05:25:50.308Z,10.12
2022-09-17T05:26:49.859Z,10.17
2022-09-17T05:27:49.851Z,10.20
2022-09-17T05:28:49.834Z,10.20
2022-09-17T05:29:49.819Z,10.22
2022-09-17T05:30:50.208Z,10.26
2022-09-17T05:31:49.799Z,10.27
2022-09-17T05:32:49.788Z,10.30
2022-09-17T05:33:49.769Z,10.33
2022-09-17T05:34:49.776Z,10.36
2022-09-17T05:35:49.777Z,10.38
2022-09-17T05:36:49.734Z,10.38
2022-09-17T05:37:49.717Z,10.42
2022-09-17T05:38:49.750Z,10.44
2022-09-17T05:39:49.728Z,10.44
2022-09-17T05:40:50.123Z,10.45
2022-09-17T05:41:49.676Z,10.47
2022-09-17T05:42:49.662Z,10.47
2022-09-17T05:43:49.641Z,10.51
2022-09-17T05:44:49.627Z,10.51
2022-09-17T05:45:49.999Z,10.51
2022-09-17T05:46:49.653Z,10.53
2022-09-17T05:47:49.593Z,10.52
2022-09-17T05:48:49.575Z,10.55
2022-09-17T05:49:49.565Z,10.55
2022-09-17T05:50:50.002Z,10.56
2022-09-17T05:51:49.543Z,10.56
2022-09-17T05:52:49.551Z,10.56
2022-09-17T05:53:49.513Z,10.56
2022-09-17T05:54:49.501Z,10.53
2022-09-17T05:55:49.792Z,10.55
2022-09-17T05:56:49.492Z,10.56
2022-09-17T05:57:49.473Z,10.60
2022-09-17T05:58:49.560Z,10.64
2022-09-17T05:59:49.438Z,10.67
2022-09-17T06:00:49.769Z,10.70
2022-09-17T06:01:49.443Z,10.73
2022-09-17T06:02:49.484Z,10.74
2022-09-17T06:03:49.463Z,10.76
2022-09-17T06:04:49.367Z,10.78
2022-09-17T06:05:57.812Z,10.76
2022-09-17T06:06:56.343Z,10.78
2022-09-17T06:07:56.329Z,10.78
2022-09-17T06:08:56.318Z,10.85
2022-09-17T06:09:56.305Z,10.92
2022-09-17T06:10:49.606Z,10.99
2022-09-17T06:11:49.284Z,11.04
2022-09-17T06:12:56.289Z,11.07
2022-09-17T06:13:49.284Z,11.10
2022-09-17T06:14:49.246Z,11.11
2022-09-17T06:15:49.255Z,11.15
2022-09-17T06:16:49.594Z,11.17
2022-09-17T06:17:49.207Z,11.21
2022-09-17T06:18:49.225Z,11.25
2022-09-17T06:19:49.185Z,11.35
2022-09-17T06:20:49.178Z,11.42
2022-09-17T06:21:49.774Z,11.49
2022-09-17T06:22:49.155Z,11.51
2022-09-17T06:23:49.138Z,11.52
2022-09-17T06:24:49.122Z,11.58
2022-09-17T06:25:49.125Z,11.61
2022-09-17T06:26:49.445Z,11.62
2022-09-17T06:27:49.091Z,11.69
2022-09-17T06:28:49.078Z,11.78
2022-09-17T06:29:49.059Z,11.80
2022-09-17T06:30:49.052Z,11.79
2022-09-17T06:31:49.587Z,11.78
2022-09-17T06:32:49.026Z,11.82
2022-09-17T06:33:49.004Z,11.88
2022-09-17T06:34:49.012Z,11.78
2022-09-17T06:35:48.976Z,11.76
2022-09-17T06:36:49.391Z,11.82
2022-09-17T06:37:48.958Z,11.85
2022-09-17T06:38:48.975Z,11.86
2022-09-17T06:39:48.925Z,11.88
2022-09-17T06:40:48.920Z,11.86
2022-09-17T06:41:49.427Z,11.78
2022-09-17T06:42:48.892Z,11.78
2022-09-17T06:43:48.878Z,11.78
2022-09-17T06:44:48.878Z,11.79
2022-09-17T06:45:48.850Z,11.82
2022-09-17T06:46:48.947Z,11.85
2022-09-17T06:47:48.828Z,11.83
2022-09-17T06:48:48.809Z,11.82
2022-09-17T06:49:48.809Z,11.76
2022-09-17T06:50:48.815Z,11.70
2022-09-17T06:51:49.128Z,11.69
2022-09-17T06:52:48.758Z,11.58
2022-09-17T06:53:48.924Z,11.55
2022-09-17T06:54:48.744Z,11.51
2022-09-17T06:55:48.727Z,11.49
2022-09-17T06:56:49.049Z,11.42
2022-09-17T06:57:48.700Z,11.37
2022-09-17T06:58:48.677Z,11.39
2022-09-17T06:59:48.690Z,11.36
2022-09-17T07:00:48.684Z,11.35
2022-09-17T07:01:49.119Z,11.27
2022-09-17T07:02:48.635Z,11.24
2022-09-17T07:03:48.616Z,11.19
2022-09-17T07:04:48.609Z,11.19
2022-09-17T07:05:48.585Z,11.19
2022-09-17T07:06:48.966Z,11.18
2022-09-17T07:07:48.572Z,11.18
2022-09-17T07:08:48.663Z,11.18
2022-09-17T07:09:48.541Z,11.18
2022-09-17T07:10:48.544Z,11.19
2022-09-17T07:11:49.243Z,11.24
2022-09-17T07:12:50.060Z,11.32
2022-09-17T07:13:48.493Z,11.37
2022-09-17T07:14:48.484Z,11.44
2022-09-17T07:15:48.480Z,11.54
2022-09-17T07:16:48.828Z,11.65
2022-09-17T07:17:48.452Z,11.76
2022-09-17T07:18:48.431Z,11.82
2022-09-17T07:19:48.422Z,11.79
2022-09-17T07:20:48.409Z,11.86
2022-09-17T07:21:48.787Z,11.91
2022-09-17T07:22:48.378Z,11.91
2022-09-17T07:23:48.414Z,11.96
2022-09-17T07:24:48.353Z,11.91
2022-09-17T07:25:48.346Z,11.94
2022-09-17T07:26:48.762Z,11.94
2022-09-17T07:27:48.312Z,11.95
2022-09-17T07:28:48.302Z,11.86
2022-09-17T07:29:48.293Z,11.79
2022-09-17T07:30:48.356Z,11.67
2022-09-17T07:31:48.633Z,11.60
2022-09-17T07:32:48.261Z,11.52
2022-09-17T07:33:48.241Z,11.47
2022-09-17T07:34:48.223Z,11.39
2022-09-17T07:35:48.208Z,11.35
2022-09-17T07:36:48.629Z,11.32
2022-09-17T07:37:48.182Z,11.28
2022-09-17T07:38:48.313Z,11.27
2022-09-17T07:39:48.155Z,11.21
2022-09-17T07:40:48.149Z,11.14
2022-09-17T07:41:48.560Z,10.99
2022-09-17T07:42:48.126Z,10.88
2022-09-17T07:43:48.102Z,10.79
2022-09-17T07:44:48.089Z,10.76
2022-09-17T07:45:48.076Z,10.67
2022-09-17T07:46:48.478Z,10.67
2022-09-17T07:47:48.048Z,10.67
2022-09-17T07:48:48.047Z,10.66
2022-09-17T07:49:48.049Z,10.67
2022-09-17T07:50:48.016Z,10.56
2022-09-17T07:51:48.027Z,10.52
2022-09-17T07:52:48.458Z,10.55
2022-09-17T07:53:48.162Z,10.41
2022-09-17T07:54:47.975Z,10.36
2022-09-17T07:55:47.975Z,10.29
2022-09-17T07:56:47.946Z,10.30
2022-09-17T07:57:48.345Z,10.38
2022-09-17T07:58:47.934Z,10.45
2022-09-17T07:59:47.901Z,10.42
2022-09-17T08:00:47.902Z,10.42
2022-09-17T08:01:47.980Z,10.38
2022-09-17T08:02:48.344Z,10.45
2022-09-17T08:03:47.854Z,10.55
2022-09-17T08:04:47.876Z,10.52
2022-09-17T08:05:47.843Z,10.56
2022-09-17T08:06:47.824Z,10.70
2022-09-17T08:07:48.177Z,10.81
2022-09-17T08:08:47.802Z,10.92
2022-09-17T08:09:47.783Z,11.04
2022-09-17T08:10:47.782Z,11.09
2022-09-17T08:11:56.378Z,11.10
2022-09-17T08:12:49.074Z,11.09
2022-09-17T08:13:47.722Z,11.14
2022-09-17T08:14:47.751Z,11.19
2022-09-17T08:15:48.785Z,11.06
2022-09-17T08:16:47.813Z,10.97
2022-09-17T08:17:48.110Z,10.94
2022-09-17T08:18:47.662Z,10.94
2022-09-17T08:19:47.653Z,10.82
2022-09-17T08:20:47.640Z,10.84
2022-09-17T08:21:47.621Z,10.79
2022-09-17T08:22:50.206Z,10.66
2022-09-17T08:23:47.667Z,10.61
2022-09-17T08:24:47.589Z,10.48
2022-09-17T08:25:47.569Z,10.51
2022-09-17T08:26:47.562Z,10.36
2022-09-17T08:27:47.861Z,10.32
2022-09-17T08:28:47.571Z,10.32
2022-09-17T08:29:47.508Z,10.42
2022-09-17T08:30:47.658Z,10.56
2022-09-17T08:31:47.591Z,10.66
2022-09-17T08:32:47.807Z,10.74
2022-09-17T08:33:47.518Z,10.81
2022-09-17T08:34:47.470Z,10.86
2022-09-17T08:35:47.444Z,10.99
2022-09-17T08:36:47.437Z,11.07
2022-09-17T08:37:47.874Z,11.22
2022-09-17T08:38:47.702Z,11.37
2022-09-17T08:39:47.448Z,11.42
2022-09-17T08:40:47.455Z,11.51
2022-09-17T08:41:47.381Z,11.58
2022-09-17T08:42:47.725Z,11.61
2022-09-17T08:43:47.340Z,11.65
2022-09-17T08:44:47.330Z,11.69
2022-09-17T08:45:47.326Z,11.67
2022-09-17T08:46:47.447Z,11.65
2022-09-17T08:47:47.324Z,11.67
2022-09-17T08:48:47.305Z,11.72
2022-09-17T08:49:47.264Z,11.78
2022-09-17T08:50:47.251Z,11.88
2022-09-17T08:51:47.235Z,11.85
2022-09-17T08:52:47.624Z,11.78
2022-09-17T08:53:47.218Z,11.79
2022-09-17T08:54:47.207Z,11.78
2022-09-17T08:55:47.192Z,11.78
2022-09-17T08:56:47.662Z,11.83
2022-09-17T08:57:47.523Z,11.86
2022-09-17T08:58:47.142Z,11.98
2022-09-17T08:59:54.152Z,12.05
2022-09-17T09:00:54.138Z,12.13
2022-09-17T09:01:47.212Z,12.21
2022-09-17T09:02:47.182Z,12.28
2022-09-17T09:03:54.109Z,12.42
2022-09-17T09:04:54.095Z,12.49
2022-09-17T09:05:47.034Z,12.46
2022-09-17T09:06:47.045Z,12.59
2022-09-17T09:07:47.068Z,12.74
2022-09-17T09:08:47.086Z,12.96
2022-09-17T09:09:47.012Z,13.19
2022-09-17T09:10:47.041Z,13.38
2022-09-17T09:11:47.042Z,13.51
2022-09-17T09:12:47.408Z,13.63
2022-09-17T09:13:46.949Z,13.70
2022-09-17T09:14:46.943Z,13.78
2022-09-17T09:15:46.952Z,13.84
2022-09-17T09:16:46.912Z,13.85
2022-09-17T09:17:47.334Z,13.85
2022-09-17T09:18:46.892Z,13.71
2022-09-17T09:19:46.891Z,13.71
2022-09-17T09:20:46.872Z,13.82
2022-09-17T09:21:46.863Z,13.70
2022-09-17T09:22:47.224Z,13.75
2022-09-17T09:23:46.872Z,13.70
2022-09-17T09:24:46.791Z,13.78
2022-09-17T09:25:46.799Z,13.82
2022-09-17T09:26:46.920Z,13.77
2022-09-17T09:27:47.190Z,13.78
2022-09-17T09:28:46.772Z,13.87
2022-09-17T09:29:46.787Z,13.97
2022-09-17T09:30:46.742Z,14.15
2022-09-17T09:31:46.799Z,14.24
2022-09-17T09:32:46.748Z,13.85
2022-09-17T09:33:48.063Z,13.55
2022-09-17T09:34:46.689Z,13.59
2022-09-17T09:35:46.663Z,13.66
2022-09-17T09:36:46.659Z,13.46
2022-09-17T09:37:47.070Z,13.60
2022-09-17T09:38:46.676Z,13.75
2022-09-17T09:39:46.610Z,13.84
2022-09-17T09:40:46.610Z,13.87
2022-09-17T09:41:46.593Z,13.84
2022-09-17T09:42:46.955Z,13.87
2022-09-17T09:44:03.287Z,13.95
2022-09-17T09:44:47.551Z,13.88
2022-09-17T09:45:46.538Z,13.71
2022-09-17T09:46:46.626Z,13.57
2022-09-17T09:47:46.533Z,13.46
2022-09-17T09:48:46.928Z,13.30
2022-09-17T09:49:46.488Z,13.38
2022-09-17T09:51:05.207Z,13.51
2022-09-17T09:51:47.460Z,13.69
2022-09-17T09:52:46.442Z,13.81
2022-09-17T09:53:46.833Z,13.73
2022-09-17T09:54:46.418Z,13.63
2022-09-17T09:55:46.407Z,13.66
2022-09-17T09:56:46.395Z,13.66
2022-09-17T09:57:46.387Z,13.71
2022-09-17T09:58:46.686Z,13.88
2022-09-17T09:59:46.347Z,13.89
2022-09-17T10:00:46.346Z,13.59
2022-09-17T10:01:46.462Z,13.46
2022-09-17T10:02:46.407Z,13.46
2022-09-17T10:03:46.679Z,13.62
2022-09-17T10:04:49.236Z,13.70
2022-09-17T10:05:47.306Z,13.67
2022-09-17T10:06:46.285Z,13.66
2022-09-17T10:07:46.247Z,13.73
2022-09-17T10:08:46.726Z,13.79
2022-09-17T10:09:46.247Z,13.84
2022-09-17T10:10:46.216Z,13.75
2022-09-17T10:11:46.204Z,13.69
2022-09-17T10:12:46.186Z,13.63
2022-09-17T10:13:46.497Z,13.54
2022-09-17T10:14:46.167Z,13.48
2022-09-17T10:15:46.208Z,13.44
2022-09-17T10:16:46.134Z,13.36
2022-09-17T10:17:46.145Z,13.26
2022-09-17T10:18:46.545Z,13.19
2022-09-17T10:19:46.104Z,13.17
2022-09-17T10:20:46.074Z,13.17
2022-09-17T10:21:46.073Z,13.19
2022-09-17T10:22:46.053Z,13.25
2022-09-17T10:23:46.564Z,13.17
2022-09-17T10:24:46.023Z,13.07
2022-09-17T10:25:46.022Z,13.05
2022-09-17T10:26:46.004Z,13.07
2022-09-17T10:27:45.993Z,13.05
2022-09-17T10:28:46.412Z,13.04
2022-09-17T10:29:45.985Z,12.89
2022-09-17T10:30:45.955Z,12.75
2022-09-17T10:31:45.983Z,12.65
2022-09-17T10:32:45.924Z,12.62
2022-09-17T10:33:46.246Z,12.64
2022-09-17T10:34:45.903Z,12.67
2022-09-17T10:35:45.900Z,12.59
2022-09-17T10:36:45.871Z,12.71
2022-09-17T10:37:45.873Z,12.87
2022-09-17T10:38:46.276Z,13.00
2022-09-17T10:39:45.843Z,12.97
2022-09-17T10:40:45.820Z,13.12
2022-09-17T10:41:45.810Z,13.22
2022-09-17T10:42:45.790Z,13.15
2022-09-17T10:43:46.179Z,13.26
2022-09-17T10:44:45.782Z,13.46
2022-09-17T10:45:45.750Z,13.64
2022-09-17T10:46:45.812Z,13.85
2022-09-17T10:47:45.726Z,14.07
2022-09-17T10:48:46.165Z,14.00
2022-09-17T10:49:45.701Z,14.06
2022-09-17T10:50:45.688Z,14.12
2022-09-17T10:51:45.678Z,14.03
2022-09-17T10:52:45.667Z,14.24
2022-09-17T10:53:45.701Z,14.47
2022-09-17T10:54:45.957Z,14.61
2022-09-17T10:55:45.639Z,14.91
2022-09-17T10:56:45.611Z,15.06
2022-09-17T10:57:45.616Z,15.19
2022-09-17T10:58:45.580Z,15.21
2022-09-17T10:59:45.967Z,15.25
2022-09-17T11:00:45.558Z,14.95
2022-09-17T11:01:45.735Z,14.86
2022-09-17T11:02:45.647Z,14.99
2022-09-17T11:03:45.526Z,15.09
2022-09-17T11:04:45.827Z,14.57
2022-09-17T11:05:45.497Z,14.40
2022-09-17T11:06:45.480Z,14.24
2022-09-17T11:07:45.471Z,14.22
2022-09-17T11:08:45.478Z,14.20
2022-09-17T11:09:45.759Z,14.50
2022-09-17T11:10:45.436Z,14.80
2022-09-17T11:11:45.426Z,15.03
2022-09-17T11:12:45.402Z,15.34
2022-09-17T11:13:45.406Z,15.56
2022-09-17T11:14:45.694Z,15.78
2022-09-17T11:15:47.672Z,15.65
2022-09-17T11:16:46.432Z,15.84
2022-09-17T11:17:45.485Z,15.92
2022-09-17T11:18:45.325Z,16.12
2022-09-17T11:19:45.759Z,16.11
2022-09-17T11:20:45.305Z,16.12
2022-09-17T11:21:45.296Z,16.15
2022-09-17T11:22:45.275Z,16.24
2022-09-17T11:23:45.264Z,16.38
2022-09-17T11:24:45.614Z,16.38
2022-09-17T11:25:45.244Z,16.24
2022-09-17T11:26:45.225Z,15.65
2022-09-17T11:27:45.204Z,15.47
2022-09-17T11:28:45.204Z,15.41
2022-09-17T11:29:45.631Z,15.28
2022-09-17T11:30:45.173Z,15.39
2022-09-17T11:31:45.189Z,15.59
2022-09-17T11:32:45.153Z,15.87
2022-09-17T11:33:45.133Z,16.02
2022-09-17T11:34:45.145Z,16.02
2022-09-17T11:35:45.104Z,15.94
2022-09-17T11:36:45.101Z,15.78
2022-09-17T11:37:45.086Z,16.01
2022-09-17T11:38:45.071Z,16.14
2022-09-17T11:39:45.095Z,16.15
2022-09-17T11:40:45.049Z,16.14
2022-09-17T11:41:45.032Z,15.97
2022-09-17T11:42:45.027Z,16.05
2022-09-17T11:43:45.011Z,16.01
2022-09-17T11:44:45.379Z,15.96
2022-09-17T11:45:44.972Z,16.12
2022-09-17T11:46:45.022Z,16.41
2022-09-17T11:47:44.955Z,16.45
2022-09-17T11:48:44.954Z,16.60
2022-09-17T11:49:45.374Z,16.79
2022-09-17T11:50:44.928Z,16.78
2022-09-17T11:51:44.913Z,16.76
2022-09-17T11:52:44.927Z,16.70
2022-09-17T11:53:44.906Z,16.48
2022-09-17T11:54:45.259Z,16.71
2022-09-17T11:55:44.855Z,16.73
2022-09-17T11:56:44.832Z,16.86
2022-09-17T11:57:44.838Z,17.18
2022-09-17T11:58:44.814Z,17.21
2022-09-17T11:59:45.252Z,17.22
2022-09-17T12:00:44.793Z,17.01
2022-09-17T12:01:44.876Z,17.04
2022-09-17T12:02:44.831Z,17.08
2022-09-17T12:03:44.755Z,16.83
2022-09-17T12:04:45.088Z,16.52
2022-09-17T12:05:44.728Z,16.53
2022-09-17T12:06:44.707Z,16.57
2022-09-17T12:07:44.702Z,16.50
2022-09-17T12:08:44.679Z,16.11
2022-09-17T12:09:45.053Z,16.15
2022-09-17T12:10:44.651Z,16.34
2022-09-17T12:11:44.651Z,16.50
2022-09-17T12:12:50.191Z,16.63
2022-09-17T12:13:45.620Z,16.56
2022-09-17T12:14:44.939Z,16.27
2022-09-17T12:15:44.673Z,16.23
2022-09-17T12:16:44.622Z,16.11
2022-09-17T12:17:44.566Z,15.87
2022-09-17T12:18:44.559Z,15.72
2022-09-17T12:19:44.980Z,15.76
2022-09-17T12:20:44.539Z,15.83
2022-09-17T12:21:44.522Z,15.76
2022-09-17T12:22:44.499Z,15.75
2022-09-17T12:23:44.499Z,15.54
2022-09-17T12:24:44.838Z,15.36
2022-09-17T12:25:44.473Z,15.28
2022-09-17T12:26:44.447Z,15.13
2022-09-17T12:27:44.534Z,15.09
2022-09-17T12:28:44.420Z,15.07
2022-09-17T12:29:51.933Z,15.02
2022-09-17T12:30:51.391Z,15.01
2022-09-17T12:31:44.412Z,14.92
2022-09-17T12:32:44.361Z,14.89
2022-09-17T12:33:51.378Z,14.95
2022-09-17T12:34:51.928Z,14.98
2022-09-17T12:36:04.354Z,15.03
2022-09-17T12:36:51.308Z,15.06
2022-09-17T12:37:44.302Z,15.03
2022-09-17T12:38:44.292Z,14.91
2022-09-17T12:39:51.376Z,14.81
2022-09-17T12:40:51.269Z,14.80
2022-09-17T12:41:44.257Z,14.83
2022-09-17T12:42:44.235Z,14.81
2022-09-17T12:43:44.227Z,14.69
2022-09-17T12:44:44.210Z,14.54
2022-09-17T12:45:49.919Z,14.20
2022-09-17T12:46:45.275Z,13.97
2022-09-17T12:47:44.179Z,13.87
2022-09-17T12:48:44.168Z,13.81
2022-09-17T12:49:44.151Z,13.73
2022-09-17T12:50:44.504Z,13.67
2022-09-17T12:51:44.128Z,13.64
2022-09-17T12:52:44.118Z,13.55
2022-09-17T12:53:44.102Z,13.36
2022-09-17T12:54:45.412Z,13.20
2022-09-17T12:55:44.430Z,13.05
2022-09-17T12:56:44.067Z,13.03
2022-09-17T12:57:44.048Z,13.00
2022-09-17T12:58:44.039Z,13.17